Aérodrome :
LOGIN :

S'inscrire | Disclaimer

   EN    FR    IT 

 










Légende :    VFR   VFR Marginal   IFR   IFR Intensif   IFR Très Intensif
Visi : 
Plafond : 
>= 8 km
>= 3000ft
5 à 8 km
1000 à 3000 ft
1500m à 5 km
500 à 1000 ft
800 à 1500m
200 à 500 ft
< 800m
< 200 ft
Symboles :   Orages  Brouillard  Fortes neiges  Fortes précipitations  Vent > 20 kt
SIGMETs :   Divers  Orages  Givrage  Turbulence  Onde Orograph.  Cendres Volcan.







- Altitude de l'aérodrome : 231 ft
- Code IATA : WTN


EGXW - RAF Waddington

DERNIER METAR :
  • 260650Z 25015KT 9999 FEW016 08/04 Q1011 BLU NOSIG

METARs EXPIRÉS :
  • 260550Z 24011KT 9999 FEW042 07/04 Q1011 BLU
  • 260450Z AUTO 23008KT 9999 FEW043/// 06/04 Q1011

TAF TAF EGXW
Valide du 26 à 06h jusqu'au 27 à 00h UTC


260417Z 2606/2624 24010KT 9999 FEW040
PROB30
TEMPO 2607/2610 SCT015
BECMG 2608/2610 26018G28KT
PROB30
TEMPO 2610/2618 7000 SHRA SCT022
BECMG 2617/2619 24012KT
Pas de NOTAMs connus pour ce terrain.



MET'MAP, la Météo Aéronautique d'un coup d'oeil ! - Copyright ORBIFLY Décembre 2007 - Disclaimer

ORBIFLY MET'MAP TEAM :

Programmation & Développement : Alexandra Zaïnal
Conception & Développement : Baudouin d'Aumeries
Co-Programmation & Développement : Marc-Olivier Méhu
Soutien technique & logistique : Manuel Goepfert

Contact : metmap@orbifly.com




SOURCES & CREDITS :

   NOAA